createdAt,value
2024-02-05T00:02:12.064Z,57.01
2024-02-05T00:07:15.235Z,57.14
2024-02-05T00:12:17.849Z,56.98
2024-02-05T00:17:19.906Z,57.14
2024-02-05T00:22:21.497Z,57.14
2024-02-05T00:27:23.449Z,57.48
2024-02-05T00:32:25.284Z,57.45
2024-02-05T00:37:27.842Z,57.37
2024-02-05T00:42:29.489Z,57.38
2024-02-05T00:47:31.409Z,57.59
2024-02-05T00:52:33.668Z,57.48
2024-02-05T00:57:35.308Z,57.45
2024-02-05T01:02:39.740Z,57.40
2024-02-05T01:07:41.398Z,57.52
2024-02-05T01:12:43.239Z,57.73
2024-02-05T01:17:44.962Z,57.88
2024-02-05T01:22:47.092Z,57.81
2024-02-05T01:27:48.695Z,57.72
2024-02-05T01:32:50.411Z,58.69
2024-02-05T01:37:52.005Z,58.30
2024-02-05T01:42:53.683Z,58.42
2024-02-05T01:47:55.789Z,58.12
2024-02-05T01:52:57.687Z,58.15
2024-02-05T01:57:59.624Z,58.06
2024-02-05T02:03:07.305Z,58.11
2024-02-05T02:08:12.568Z,58.18
2024-02-05T02:13:17.457Z,58.11
2024-02-05T02:18:23.908Z,58.87
2024-02-05T02:23:30.814Z,58.92
2024-02-05T02:28:32.447Z,58.74
2024-02-05T02:33:58.470Z,59.11
2024-02-05T02:39:16.884Z,58.77
2024-02-05T02:44:19.588Z,59.03
2024-02-05T02:49:21.606Z,58.99
2024-02-05T02:54:23.702Z,58.74
2024-02-05T02:59:25.275Z,58.81
2024-02-05T03:04:26.989Z,59.02
2024-02-05T03:09:28.653Z,58.74
2024-02-05T03:14:30.174Z,58.63
2024-02-05T03:19:31.890Z,58.08
2024-02-05T03:24:33.518Z,58.14
2024-02-05T03:29:35.069Z,58.04
2024-02-05T03:34:36.880Z,57.77
2024-02-05T03:39:38.645Z,57.86
2024-02-05T03:44:40.239Z,57.58
2024-02-05T03:49:41.860Z,57.55
2024-02-05T03:54:45.153Z,57.71
2024-02-05T03:59:47.108Z,57.72
2024-02-05T04:04:48.673Z,58.05
2024-02-05T04:09:50.247Z,57.74
2024-02-05T04:14:51.883Z,57.79
2024-02-05T04:19:53.850Z,58.00
2024-02-05T04:24:55.493Z,57.74
2024-02-05T04:29:57.383Z,58.24
2024-02-05T04:34:59.321Z,58.43
2024-02-05T04:40:01.259Z,57.78
2024-02-05T04:45:02.874Z,58.11
2024-02-05T04:50:04.855Z,57.98
2024-02-05T04:55:06.920Z,57.81
2024-02-05T05:00:09.467Z,57.86
2024-02-05T05:05:11.281Z,57.92
2024-02-05T05:10:12.977Z,57.96
2024-02-05T05:15:17.644Z,57.81
2024-02-05T05:20:19.197Z,57.78
2024-02-05T05:25:20.883Z,57.81
2024-02-05T05:30:22.467Z,57.68
2024-02-05T05:35:25.048Z,57.96
2024-02-05T05:40:27.081Z,57.88
2024-02-05T05:45:30.905Z,58.25
2024-02-05T05:50:32.667Z,58.11
2024-02-05T05:55:34.289Z,57.78
2024-02-05T06:00:36.414Z,58.12
2024-02-05T06:05:38.092Z,58.09
2024-02-05T06:10:41.938Z,58.15
2024-02-05T06:15:43.922Z,57.87
2024-02-05T06:20:47.874Z,58.16
2024-02-05T06:25:49.608Z,57.69
2024-02-05T06:30:51.742Z,58.04
2024-02-05T06:35:53.422Z,58.39
2024-02-05T06:40:55.021Z,58.35
2024-02-05T06:45:56.649Z,57.92
2024-02-05T06:50:58.526Z,58.00
2024-02-05T06:56:00.710Z,57.96
2024-02-05T07:01:02.482Z,58.12
2024-02-05T07:06:04.293Z,57.99
2024-02-05T07:11:05.961Z,58.10
2024-02-05T07:16:12.154Z,57.82
2024-02-05T07:21:13.730Z,57.69
2024-02-05T07:26:15.679Z,57.80
2024-02-05T07:31:17.346Z,57.56
2024-02-05T07:36:19.351Z,57.83
2024-02-05T07:41:20.916Z,57.66
2024-02-05T07:46:22.720Z,57.82
2024-02-05T07:51:24.622Z,58.00
2024-02-05T07:56:26.653Z,57.84
2024-02-05T08:01:28.838Z,57.84
2024-02-05T08:06:31.253Z,57.71
2024-02-05T08:11:33.082Z,57.87
2024-02-05T08:16:34.960Z,57.77
2024-02-05T08:21:37.589Z,57.76
2024-02-05T08:26:39.534Z,57.56
2024-02-05T08:31:41.667Z,57.93
2024-02-05T08:36:43.636Z,57.59
2024-02-05T08:41:46.877Z,57.92
2024-02-05T08:46:48.609Z,57.58
2024-02-05T08:51:50.331Z,57.49
2024-02-05T08:56:51.985Z,57.21
2024-02-05T09:01:53.737Z,57.02
2024-02-05T09:06:55.574Z,57.09
2024-02-05T09:12:05.620Z,56.94
2024-02-05T09:17:09.092Z,56.99
2024-02-05T09:22:10.755Z,56.87
2024-02-05T09:27:12.720Z,56.85
2024-02-05T09:32:14.368Z,56.91
2024-02-05T09:37:15.986Z,56.94
2024-02-05T09:42:17.869Z,56.73
2024-02-05T09:47:20.999Z,56.54
2024-02-05T09:52:25.553Z,56.77
2024-02-05T09:57:31.833Z,56.19
2024-02-05T10:02:36.144Z,56.45
2024-02-05T10:07:40.875Z,56.26
2024-02-05T10:12:45.006Z,56.09
2024-02-05T10:17:47.658Z,56.36
2024-02-05T10:22:50.439Z,56.25
2024-02-05T10:28:04.412Z,55.96
2024-02-05T10:33:07.473Z,55.71
2024-02-05T10:38:11.510Z,55.58
2024-02-05T10:43:13.208Z,55.64
2024-02-05T10:48:15.090Z,55.16
2024-02-05T10:53:17.285Z,55.09
2024-02-05T10:58:20.381Z,54.63
2024-02-05T11:03:25.861Z,55.02
2024-02-05T11:08:33.031Z,54.72
2024-02-05T11:13:47.164Z,54.27
2024-02-05T11:18:58.023Z,53.91
2024-02-05T11:24:00.822Z,54.13
2024-02-05T11:29:02.498Z,53.78
2024-02-05T11:34:06.815Z,54.21
2024-02-05T11:39:09.010Z,53.60
2024-02-05T11:44:17.216Z,53.56
2024-02-05T11:49:19.557Z,53.31
2024-02-05T11:54:22.647Z,53.30
2024-02-05T11:59:24.684Z,53.17
2024-02-05T12:04:26.768Z,53.14
2024-02-05T12:09:28.747Z,52.60
2024-02-05T12:14:37.916Z,52.30
2024-02-05T12:19:40.038Z,51.78
2024-02-05T12:24:42.316Z,52.18
2024-02-05T12:29:44.484Z,52.31
2024-02-05T12:34:47.535Z,52.19
2024-02-05T12:39:52.774Z,51.94
2024-02-05T12:45:05.360Z,51.59
2024-02-05T12:50:14.925Z,51.48
2024-02-05T12:55:16.833Z,51.33
2024-02-05T13:00:19.584Z,51.06
2024-02-05T13:05:24.114Z,50.77
2024-02-05T13:10:27.814Z,50.71
2024-02-05T13:15:30.900Z,50.55
2024-02-05T13:20:35.351Z,50.25
2024-02-05T13:25:45.041Z,50.31
2024-02-05T13:30:48.270Z,49.76
2024-02-05T13:35:50.065Z,49.93
2024-02-05T13:40:52.026Z,48.96
2024-02-05T13:45:55.570Z,48.25
2024-02-05T13:50:57.584Z,48.52
2024-02-05T13:55:59.559Z,48.70
2024-02-05T14:01:01.347Z,48.88
2024-02-05T14:06:03.364Z,48.14
2024-02-05T14:11:05.195Z,48.68
2024-02-05T14:16:07.248Z,47.71
2024-02-05T14:21:10.622Z,47.68
2024-02-05T14:26:13.539Z,47.57
2024-02-05T14:31:16.234Z,47.12
2024-02-05T14:36:19.361Z,47.54
2024-02-05T14:41:21.442Z,47.13
2024-02-05T14:46:23.976Z,46.97
2024-02-05T14:51:31.276Z,47.21
2024-02-05T14:56:33.023Z,47.18
2024-02-05T15:01:36.087Z,46.81
2024-02-05T15:06:38.817Z,47.27
2024-02-05T15:11:40.847Z,47.12
2024-02-05T15:16:44.717Z,46.82
2024-02-05T15:21:49.077Z,47.33
2024-02-05T15:26:51.049Z,47.04
2024-02-05T15:31:56.021Z,47.15
2024-02-05T15:36:57.808Z,47.11
2024-02-05T15:41:59.375Z,46.99
2024-02-05T15:47:00.985Z,46.77
2024-02-05T15:52:04.063Z,46.85
2024-02-05T15:57:05.772Z,46.91
2024-02-05T16:02:07.494Z,46.88
2024-02-05T16:07:09.222Z,47.27
2024-02-05T16:12:10.872Z,47.28
2024-02-05T16:17:12.837Z,47.76
2024-02-05T16:22:14.426Z,47.35
2024-02-05T16:27:16.454Z,47.64
2024-02-05T16:32:20.052Z,47.67
2024-02-05T16:37:21.723Z,47.95
2024-02-05T16:42:27.352Z,47.98
2024-02-05T16:47:28.986Z,48.15
2024-02-05T16:52:30.582Z,48.11
2024-02-05T16:57:32.152Z,47.67
2024-02-05T17:02:33.780Z,48.05
2024-02-05T17:07:35.451Z,48.39
2024-02-05T17:12:37.123Z,48.00
2024-02-05T17:17:39.108Z,48.10
2024-02-05T17:22:40.736Z,48.34
2024-02-05T17:27:42.748Z,48.39
2024-02-05T17:32:45.472Z,48.32
2024-02-05T17:37:47.831Z,48.46
2024-02-05T17:42:49.562Z,48.46
2024-02-05T17:47:51.208Z,48.57
2024-02-05T17:52:53.041Z,48.87
2024-02-05T17:57:54.629Z,48.62
2024-02-05T18:02:56.322Z,49.10
2024-02-05T18:07:58.309Z,49.21
2024-02-05T18:13:01.884Z,49.04
2024-02-05T18:18:06.372Z,49.07
2024-02-05T18:23:08.344Z,48.91
2024-02-05T18:28:10.936Z,49.07
2024-02-05T18:33:14.104Z,48.75
2024-02-05T18:38:15.840Z,49.14
2024-02-05T18:43:18.704Z,49.10
2024-02-05T18:48:20.440Z,49.03
2024-02-05T18:53:22.164Z,49.17
2024-02-05T18:58:23.890Z,49.25
2024-02-05T19:03:25.688Z,49.61
2024-02-05T19:08:27.503Z,49.07
2024-02-05T19:13:31.898Z,48.86
2024-02-05T19:18:33.813Z,49.04
2024-02-05T19:23:36.205Z,49.13
2024-02-05T19:28:41.550Z,48.86
2024-02-05T19:33:43.890Z,48.82
2024-02-05T19:38:45.588Z,48.75
2024-02-05T19:43:47.487Z,48.82
2024-02-05T19:48:49.261Z,49.08
2024-02-05T19:53:51.038Z,48.85
2024-02-05T19:58:52.775Z,48.80
2024-02-05T20:03:55.348Z,48.64
2024-02-05T20:08:57.380Z,48.51
2024-02-05T20:13:59.715Z,48.59
2024-02-05T20:19:02.969Z,48.53
2024-02-05T20:24:06.066Z,48.46
2024-02-05T20:29:07.962Z,48.10
2024-02-05T20:34:09.745Z,48.04
2024-02-05T20:39:16.061Z,48.04
2024-02-05T20:44:18.396Z,47.98
2024-02-05T20:49:20.812Z,47.60
2024-02-05T20:54:23.463Z,47.79
2024-02-05T20:59:25.838Z,47.48
2024-02-05T21:04:27.805Z,47.47
2024-02-05T21:09:30.124Z,47.36
2024-02-05T21:14:32.221Z,47.82
2024-02-05T21:19:34.787Z,47.60
2024-02-05T21:24:38.258Z,47.82
2024-02-05T21:29:41.978Z,47.85
2024-02-05T21:34:44.209Z,47.98
2024-02-05T21:39:46.413Z,47.79
2024-02-05T21:44:48.200Z,47.88
2024-02-05T21:49:50.208Z,47.92
2024-02-05T21:54:53.526Z,48.22
2024-02-05T21:59:55.296Z,47.91
2024-02-05T22:04:58.189Z,48.10
2024-02-05T22:10:00.289Z,47.73
2024-02-05T22:15:04.783Z,47.74
2024-02-05T22:20:08.482Z,47.83
2024-02-05T22:25:10.904Z,48.02
2024-02-05T22:30:12.857Z,47.71
2024-02-05T22:35:15.172Z,47.99
2024-02-05T22:40:17.855Z,47.75
2024-02-05T22:45:19.480Z,48.03
2024-02-05T22:50:21.157Z,47.73
2024-02-05T22:55:22.886Z,47.77
2024-02-05T23:00:28.198Z,47.93
2024-02-05T23:05:30.013Z,47.83
2024-02-05T23:10:32.862Z,48.21
2024-02-05T23:15:36.202Z,48.13
2024-02-05T23:20:37.777Z,47.99
2024-02-05T23:25:39.501Z,48.10
2024-02-05T23:30:41.190Z,48.13
2024-02-05T23:35:43.691Z,48.07
2024-02-05T23:40:45.414Z,47.87
2024-02-05T23:45:47.078Z,48.23
2024-02-05T23:50:48.884Z,47.84
2024-02-05T23:55:50.578Z,48.17
